Time;durP1;ratioP1;P1;durP2;ratioP2;P2;SDS_P1;SDS_P2;PMS_P1;PMS_P2;Temp;Humidity;BMP_temperature;BMP_pressure;BME280_temperature;BME280_humidity;BME280_pressure;Samples;Min_cycle;Max_cycle;Signal;HPM_P1;HPM_P2
2022/07/25 00:02:19;;;;;;;10.17;9.60;;;26.50;45.70;;;;;;20837;6762;117493;-84
2022/07/25 00:04:54;;;;;;;10.60;10.03;;;26.00;46.10;;;;;;20453;6779;309302;-84
2022/07/25 00:07:30;;;;;;;10.63;9.90;;;26.10;46.60;;;;;;20830;6764;117570;-84
2022/07/25 00:10:07;;;;;;;10.27;9.57;;;25.90;46.50;;;;;;20822;6766;117824;-84
2022/07/25 00:12:42;;;;;;;9.70;9.20;;;25.60;46.90;;;;;;20813;6766;119525;-84
2022/07/25 00:15:18;;;;;;;10.33;9.53;;;25.40;47.20;;;;;;20702;6764;118829;-84
2022/07/25 00:17:53;;;;;;;10.27;9.53;;;25.20;47.50;;;;;;20850;6762;119098;-84
2022/07/25 00:20:29;;;;;;;10.40;9.90;;;25.00;47.60;;;;;;20626;6764;277690;-84
2022/07/25 00:23:04;;;;;;;10.75;10.05;;;25.40;47.70;;;;;;20649;6749;300948;-84
2022/07/25 00:25:40;;;;;;;10.23;9.60;;;25.70;47.00;;;;;;20880;6749;120430;-84
2022/07/25 00:28:16;;;;;;;10.20;9.50;;;25.60;46.90;;;;;;20868;6754;120201;-84
2022/07/25 00:30:51;;;;;;;10.60;9.90;;;25.30;47.30;;;;;;20824;6761;118854;-84
2022/07/25 00:33:27;;;;;;;11.07;10.43;;;25.00;47.80;;;;;;20587;6764;295706;-84
2022/07/25 00:36:02;;;;;;;9.80;9.20;;;25.20;47.90;;;;;;20838;6764;118712;-84
2022/07/25 00:38:38;;;;;;;10.80;10.20;;;25.20;47.90;;;;;;20831;6761;126270;-84
2022/07/25 00:41:14;;;;;;;11.60;10.90;;;25.00;48.30;;;;;;20574;6779;308925;-83
2022/07/25 00:43:49;;;;;;;11.50;10.88;;;25.30;48.30;;;;;;20572;6764;333094;-84
2022/07/25 00:46:25;;;;;;;11.30;10.60;;;25.90;47.60;;;;;;20601;6770;293539;-83
2022/07/25 00:49:01;;;;;;;11.80;11.10;;;25.80;47.00;;;;;;20544;6799;308027;-83
2022/07/25 00:51:37;;;;;;;10.37;9.67;;;26.00;46.60;;;;;;20841;6777;117850;-84
2022/07/25 00:54:12;;;;;;;11.07;10.43;;;25.80;46.80;;;;;;20540;6777;314682;-84
2022/07/25 00:56:48;;;;;;;10.00;9.40;;;25.80;46.90;;;;;;20724;6790;118134;-84
2022/07/25 00:59:26;;;;;;;10.60;10.00;;;25.60;47.10;;;;;;20741;6793;120147;-83
2022/07/25 01:02:02;;;;;;;10.87;10.20;;;25.20;47.50;;;;;;20576;6774;309213;-84
2022/07/25 01:04:38;;;;;;;11.33;10.53;;;25.40;47.80;;;;;;20459;6794;304105;-84
2022/07/25 01:07:16;;;;;;;10.77;10.07;;;25.70;47.10;;;;;;20829;6763;121175;-84
2022/07/25 01:09:49;;;;;;;10.73;9.93;;;25.60;47.80;;;;;;20711;6810;118862;-84
2022/07/25 01:12:26;;;;;;;10.53;10.00;;;25.40;47.20;;;;;;20521;6792;308810;-84
2022/07/25 01:15:02;;;;;;;10.80;10.10;;;25.40;47.10;;;;;;20454;6777;283273;-84
2022/07/25 01:17:37;;;;;;;10.37;9.67;;;25.60;46.60;;;;;;20821;6766;118802;-83
2022/07/25 01:20:19;;;;;;;11.10;10.50;;;25.50;46.70;;;;;;20584;6763;297781;-84
2022/07/25 01:22:55;;;;;;;10.23;9.67;;;25.50;46.60;;;;;;20805;6766;121970;-84
2022/07/25 01:25:30;;;;;;;10.00;9.20;;;25.40;46.70;;;;;;20032;6811;112340;-92
2022/07/25 01:28:06;;;;;;;10.17;9.50;;;25.00;47.00;;;;;;20602;6796;118133;-84
2022/07/25 01:30:41;;;;;;;10.23;9.57;;;24.80;47.40;;;;;;20334;6804;278091;-84
2022/07/25 01:33:17;;;;;;;10.37;9.80;;;25.00;47.10;;;;;;20713;6783;119589;-84
2022/07/25 01:35:53;;;;;;;10.20;9.50;;;25.00;47.00;;;;;;20605;6806;117382;-84
2022/07/25 01:38:28;;;;;;;10.33;9.73;;;24.70;47.20;;;;;;20449;6806;279490;-84
2022/07/25 01:41:05;;;;;;;10.35;9.85;;;25.30;46.50;;;;;;20452;6799;341637;-84
2022/07/25 01:43:40;;;;;;;9.83;9.23;;;25.30;46.40;;;;;;20707;6789;121526;-85
2022/07/25 01:46:16;;;;;;;9.97;9.47;;;25.20;46.60;;;;;;20420;6800;279520;-84
2022/07/25 01:48:51;;;;;;;10.43;9.82;;;25.20;46.60;;;;;;20554;6771;281937;-84
2022/07/25 01:51:27;;;;;;;9.93;9.43;;;25.50;46.30;;;;;;20597;6756;307691;-85
2022/07/25 01:54:03;;;;;;;9.60;9.10;;;25.60;45.80;;;;;;20752;6777;117214;-84
2022/07/25 01:56:38;;;;;;;9.77;9.27;;;25.40;46.30;;;;;;20405;6792;303521;-84
2022/07/25 01:59:16;;;;;;;9.87;9.27;;;25.30;46.30;;;;;;20757;6792;117654;-86
2022/07/25 02:01:49;;;;;;;9.33;8.73;;;25.10;46.60;;;;;;20799;6781;118635;-84
2022/07/25 02:04:25;;;;;;;10.17;9.57;;;24.80;47.20;;;;;;20704;6792;118540;-84
2022/07/25 02:07:00;;;;;;;10.33;9.63;;;24.50;47.50;;;;;;20482;6762;280174;-86
2022/07/25 02:09:36;;;;;;;9.75;9.23;;;24.70;48.20;;;;;;20651;6762;277647;-84
2022/07/25 02:12:12;;;;;;;10.50;9.87;;;25.00;47.30;;;;;;20854;6763;117178;-84
2022/07/25 02:14:47;;;;;;;9.90;9.40;;;24.90;47.30;;;;;;20840;6763;119318;-84
2022/07/25 02:17:23;;;;;;;10.83;10.13;;;24.40;48.00;;;;;;20630;6781;121846;-84
2022/07/25 02:20:00;;;;;;;10.17;9.50;;;24.10;48.30;;;;;;20868;6760;117496;-85
2022/07/25 02:22:35;;;;;;;11.17;10.37;;;24.10;48.30;;;;;;20651;6760;306631;-84
2022/07/25 02:25:11;;;;;;;10.17;9.47;;;24.40;48.30;;;;;;20839;6760;117401;-84
2022/07/25 02:27:47;;;;;;;10.60;9.90;;;24.40;48.40;;;;;;20871;6759;122497;-84
2022/07/25 02:30:23;;;;;;;10.67;10.07;;;24.40;48.60;;;;;;20500;6796;312256;-85
2022/07/25 02:32:59;;;;;;;10.97;10.37;;;24.40;48.60;;;;;;20483;6794;311000;-85
2022/07/25 02:35:35;;;;;;;10.37;9.67;;;24.80;48.00;;;;;;20622;6809;116622;-85
2022/07/25 02:38:18;;;;;;;11.12;10.50;;;24.60;47.90;;;;;;20546;6781;338718;-85
2022/07/25 02:40:54;;;;;;;9.87;9.20;;;24.70;47.80;;;;;;20715;6790;118819;-85
2022/07/25 02:43:26;;;;;;;9.80;9.20;;;24.60;48.10;;;;;;20720;6807;117197;-85
2022/07/25 02:46:01;;;;;;;10.73;10.13;;;24.30;48.60;;;;;;20520;6777;311474;-85
2022/07/25 02:48:37;;;;;;;10.50;9.90;;;24.50;48.50;;;;;;20758;6792;117433;-85
2022/07/25 02:51:12;;;;;;;10.27;9.67;;;24.40;48.40;;;;;;20765;6792;117885;-85
2022/07/25 02:53:48;;;;;;;11.30;10.70;;;24.20;48.70;;;;;;20576;6777;310071;-85
2022/07/25 02:56:24;;;;;;;10.47;9.67;;;24.40;48.50;;;;;;20612;6807;116679;-84
2022/07/25 02:58:59;;;;;;;10.77;9.97;;;24.30;48.60;;;;;;20757;6790;117217;-84
2022/07/25 03:01:35;;;;;;;10.93;10.23;;;24.10;49.00;;;;;;20775;6790;118921;-85
2022/07/25 03:04:10;;;;;;;11.40;10.60;;;23.90;49.20;;;;;;20555;6790;307694;-85
2022/07/25 03:06:46;;;;;;;9.70;9.17;;;24.10;49.70;;;;;;20680;6769;119376;-84
2022/07/25 03:09:21;;;;;;;10.60;9.90;;;24.10;49.60;;;;;;20823;6782;117191;-85
2022/07/25 03:11:57;;;;;;;10.67;10.07;;;23.90;49.30;;;;;;20618;6781;310023;-84
2022/07/25 03:14:33;;;;;;;11.45;10.85;;;24.10;49.10;;;;;;20673;6747;306042;-84
2022/07/25 03:17:08;;;;;;;9.67;9.17;;;24.50;48.60;;;;;;20646;6766;117468;-84
2022/07/25 03:19:44;;;;;;;10.57;9.87;;;24.30;48.60;;;;;;20756;6786;118221;-84
2022/07/25 03:22:19;;;;;;;9.33;8.93;;;24.00;49.10;;;;;;20736;6794;117285;-84
2022/07/25 03:24:55;;;;;;;11.50;10.77;;;23.70;49.40;;;;;;20531;6800;308946;-84
2022/07/25 03:27:30;;;;;;;9.97;9.47;;;24.00;49.50;;;;;;20543;6852;118977;-85
2022/07/25 03:30:07;;;;;;;10.37;9.67;;;23.90;49.30;;;;;;20780;6792;117088;-85
2022/07/25 03:32:44;;;;;;;10.77;10.17;;;23.40;50.80;;;;;;20764;6786;127498;-84
2022/07/25 03:35:19;;;;;;;10.20;9.47;;;23.40;50.00;;;;;;20702;6790;118188;-84
2022/07/25 03:37:55;;;;;;;11.27;10.57;;;23.30;50.40;;;;;;20558;6789;307586;-84
2022/07/25 03:40:31;;;;;;;11.65;10.85;;;24.10;50.00;;;;;;20561;6771;340702;-84
2022/07/25 03:43:16;;;;;;;10.73;10.13;;;24.00;49.90;;;;;;20815;6771;118614;-85
2022/07/25 03:45:42;;;;;;;22.73;21.17;;;24.00;50.20;;;;;;20693;6786;117573;-85
2022/07/25 03:48:18;;;;;;;22.93;21.40;;;23.70;50.00;;;;;;20525;6786;308317;-85
2022/07/25 03:50:53;;;;;;;15.50;14.50;;;23.90;50.00;;;;;;20751;6786;120061;-86
2022/07/25 03:53:29;;;;;;;10.90;10.17;;;23.90;50.00;;;;;;20765;6792;117627;-85
2022/07/25 03:56:05;;;;;;;9.47;8.87;;;23.60;50.20;;;;;;20681;6807;121580;-85
2022/07/25 03:58:40;;;;;;;10.60;9.90;;;23.40;50.40;;;;;;20728;6791;119405;-85
2022/07/25 04:01:16;;;;;;;10.23;9.43;;;23.30;50.50;;;;;;20767;6765;118632;-85
2022/07/25 04:03:51;;;;;;;10.70;9.80;;;23.20;50.60;;;;;;20729;6838;117378;-85
2022/07/25 04:06:27;;;;;;;11.30;10.70;;;23.10;50.80;;;;;;20417;6788;280528;-85
2022/07/25 04:09:03;;;;;;;10.63;10.03;;;23.40;51.10;;;;;;20772;6770;117895;-85
2022/07/25 04:11:38;;;;;;;10.50;9.83;;;23.40;50.50;;;;;;20755;6777;117398;-85
2022/07/25 04:14:14;;;;;;;10.80;10.13;;;23.20;50.80;;;;;;20727;6777;119529;-85
2022/07/25 04:16:49;;;;;;;10.70;10.07;;;23.00;51.00;;;;;;20610;6763;118494;-85
2022/07/25 04:19:26;;;;;;;11.37;10.57;;;22.80;51.90;;;;;;20769;6774;118774;-85
2022/07/25 04:22:01;;;;;;;12.85;12.05;;;22.80;51.40;;;;;;20499;6792;337780;-86
2022/07/25 04:24:37;;;;;;;10.40;9.80;;;23.20;51.30;;;;;;20714;6788;117960;-84
2022/07/25 04:27:13;;;;;;;11.43;10.83;;;23.50;51.40;;;;;;20382;6769;313974;-85
2022/07/25 04:29:51;;;;;;;12.18;11.38;;;23.90;50.40;;;;;;20395;6792;278875;-88
2022/07/25 04:32:28;;;;;;;11.33;10.73;;;23.90;50.40;;;;;;20496;6802;278669;-89
2022/07/25 04:35:03;;;;;;;11.95;11.25;;;24.20;50.00;;;;;;20368;6777;308507;-90
2022/07/25 04:37:39;;;;;;;11.30;10.60;;;24.40;49.40;;;;;;20814;6759;117659;-87
2022/07/25 04:40:15;;;;;;;10.80;10.10;;;24.20;49.80;;;;;;20782;6759;119260;-90
2022/07/25 04:42:50;;;;;;;12.20;11.40;;;23.80;50.30;;;;;;20374;6804;308661;-89
2022/07/25 04:45:37;;;;;;;;;;;;;;;;;;;;;
2022/07/25 04:48:03;;;;;;;11.87;11.10;;;24.20;50.10;;;;;;20804;6771;117988;-90
2022/07/25 04:50:38;;;;;;;11.13;10.53;;;24.10;50.20;;;;;;20714;6788;118887;-89
2022/07/25 04:53:14;;;;;;;11.10;10.40;;;23.90;50.60;;;;;;20298;6797;121325;-93
2022/07/25 04:55:49;;;;;;;11.63;10.93;;;23.70;50.90;;;;;;20416;6759;292787;-87
2022/07/25 04:58:35;;;;;;;;;;;;;;;;;;;;;
2022/07/25 05:01:01;;;;;;;11.27;10.67;;;24.30;50.30;;;;;;20705;6759;119394;-87
2022/07/25 05:03:36;;;;;;;11.90;11.20;;;24.20;50.20;;;;;;20820;6774;117400;-87
2022/07/25 05:06:12;;;;;;;12.10;11.40;;;24.00;50.50;;;;;;20528;6776;313337;-87
2022/07/25 05:08:47;;;;;;;12.13;11.40;;;24.20;50.50;;;;;;20477;6759;334347;-87
2022/07/25 05:11:23;;;;;;;11.87;11.07;;;24.50;50.10;;;;;;20471;6760;117744;-86
2022/07/25 05:13:58;;;;;;;10.73;10.00;;;24.40;50.00;;;;;;20556;6760;66172;-85
2022/07/25 05:16:35;;;;;;;12.20;11.50;;;24.30;50.40;;;;;;20400;6790;309870;-87
2022/07/25 05:19:10;;;;;;;11.32;10.73;;;24.30;50.30;;;;;;20328;6774;334803;-87
2022/07/25 05:21:47;;;;;;;12.43;11.52;;;24.90;49.80;;;;;;20594;6774;305275;-87
2022/07/25 05:24:24;;;;;;;12.30;11.40;;;24.80;49.60;;;;;;20725;6774;117899;-87
2022/07/25 05:26:59;;;;;;;11.77;10.77;;;24.70;49.90;;;;;;20547;6847;120964;-87
2022/07/25 05:30:11;;;;;;;;;;;;;;;;;;;;;
2022/07/25 05:32:25;;;;;;;12.23;11.53;;;24.10;50.80;;;;;;20392;6832;313048;-86
2022/07/25 05:35:01;;;;;;;12.30;11.68;;;24.30;51.10;;;;;;20506;6776;308990;-89
2022/07/25 05:37:36;;;;;;;12.27;11.57;;;24.70;50.50;;;;;;20743;6776;117575;-87
2022/07/25 05:40:12;;;;;;;11.50;10.60;;;24.60;50.40;;;;;;20719;6791;117367;-88
2022/07/25 05:42:47;;;;;;;12.67;11.87;;;24.40;50.80;;;;;;20587;6774;276348;-86
2022/07/25 05:45:23;;;;;;;12.82;12.13;;;24.60;51.30;;;;;;20520;6774;343270;-87
2022/07/25 05:47:58;;;;;;;12.47;11.77;;;25.00;50.30;;;;;;20600;6774;318776;-87
2022/07/25 05:50:40;;;;;;;12.30;11.57;;;25.30;49.80;;;;;;20826;6774;117250;-84
2022/07/25 05:53:13;;;;;;;12.17;11.47;;;25.20;49.90;;;;;;20610;6774;304118;-84
2022/07/25 05:55:48;;;;;;;12.25;11.55;;;25.30;50.50;;;;;;20542;6774;341788;-84
2022/07/25 05:58:24;;;;;;;13.10;12.30;;;25.60;50.10;;;;;;20559;6774;307276;-87
2022/07/25 06:00:59;;;;;;;12.80;12.00;;;25.80;49.60;;;;;;20587;6774;281280;-86
2022/07/25 06:03:35;;;;;;;12.85;11.95;;;26.00;49.40;;;;;;20570;6779;281555;-86
2022/07/25 06:06:12;;;;;;;12.97;12.03;;;26.10;49.10;;;;;;20685;6792;117567;-87
2022/07/25 06:08:49;;;;;;;11.43;10.73;;;25.90;49.40;;;;;;20790;6771;149184;-87
2022/07/25 06:11:27;;;;;;;14.47;12.00;;;25.60;50.00;;;;;;20806;6761;117336;-87
2022/07/25 06:14:02;;;;;;;12.13;11.33;;;25.40;51.50;;;;;;20859;6746;117452;-86
2022/07/25 06:16:38;;;;;;;12.23;11.30;;;25.40;51.00;;;;;;20707;6746;119977;-85
2022/07/25 06:19:13;;;;;;;12.03;11.03;;;25.40;51.80;;;;;;20782;6761;119709;-87
2022/07/25 06:21:49;;;;;;;12.57;11.80;;;25.40;51.10;;;;;;20641;6745;278069;-86
2022/07/25 06:24:25;;;;;;;11.30;10.50;;;25.90;51.40;;;;;;20825;6760;119483;-86
2022/07/25 06:27:10;;;;;;;11.90;11.20;;;26.10;50.70;;;;;;20618;6760;117655;-86
2022/07/25 06:29:36;;;;;;;12.40;11.63;;;26.10;50.30;;;;;;20581;6760;306994;-86
2022/07/25 06:32:11;;;;;;;11.47;10.57;;;26.60;49.00;;;;;;20767;6775;117658;-86
2022/07/25 06:34:47;;;;;;;11.77;10.87;;;27.00;49.30;;;;;;20789;6761;127529;-86
2022/07/25 06:37:22;;;;;;;11.50;10.50;;;27.50;49.30;;;;;;20681;6761;117797;-87
2022/07/25 06:39:58;;;;;;;11.37;10.67;;;28.00;48.90;;;;;;20859;6746;117604;-86
2022/07/25 06:42:44;;;;;;;11.50;10.80;;;28.50;48.20;;;;;;20656;6746;277268;-85
2022/07/25 06:45:19;;;;;;;11.10;10.37;;;29.60;44.00;;;;;;20840;6746;117473;-84
2022/07/25 06:47:54;;;;;;;12.13;11.23;;;30.20;44.10;;;;;;20703;6746;308879;-85
2022/07/25 06:50:31;;;;;;;10.75;10.25;;;31.90;40.10;;;;;;20690;6746;318495;-86
2022/07/25 06:53:06;;;;;;;11.77;11.00;;;31.80;40.00;;;;;;20681;6746;310473;-84
2022/07/25 06:55:42;;;;;;;11.63;10.82;;;32.50;38.30;;;;;;20634;6746;332582;-85
2022/07/25 06:58:18;;;;;;;10.77;10.27;;;33.00;36.70;;;;;;20685;6746;306135;-85
2022/07/25 07:00:53;;;;;;;10.20;9.67;;;33.30;36.20;;;;;;20889;6746;117845;-85
2022/07/25 07:03:29;;;;;;;10.73;10.02;;;33.30;37.30;;;;;;20694;6746;310710;-85
2022/07/25 07:06:04;;;;;;;11.00;10.30;;;33.40;36.00;;;;;;20815;6746;117351;-85
2022/07/25 07:08:40;;;;;;;10.67;10.07;;;33.40;37.10;;;;;;20888;6746;117864;-85
2022/07/25 07:11:16;;;;;;;10.43;9.83;;;33.10;37.50;;;;;;20911;6746;117418;-85
2022/07/25 07:13:51;;;;;;;10.43;9.67;;;33.00;37.90;;;;;;20912;6746;118200;-85
2022/07/25 07:16:28;;;;;;;10.57;9.73;;;32.80;38.00;;;;;;20564;6746;308766;-85
2022/07/25 07:19:04;;;;;;;9.87;9.37;;;33.10;35.90;;;;;;20902;6746;119985;-85
2022/07/25 07:21:39;;;;;;;10.20;9.60;;;33.20;36.70;;;;;;20910;6746;121288;-84
2022/07/25 07:24:15;;;;;;;10.10;9.50;;;33.00;36.70;;;;;;20913;6746;117264;-85
2022/07/25 07:26:50;;;;;;;10.90;10.00;;;32.80;37.00;;;;;;20510;6746;279630;-84
2022/07/25 07:29:27;;;;;;;10.33;9.73;;;33.00;36.70;;;;;;20700;6746;300659;-85
2022/07/25 07:32:01;;;;;;;9.93;9.33;;;33.20;36.40;;;;;;20907;6746;117175;-85
2022/07/25 07:34:37;;;;;;;10.67;9.70;;;33.10;36.20;;;;;;20699;6745;310331;-85
2022/07/25 07:37:13;;;;;;;10.27;9.67;;;33.40;36.00;;;;;;20494;6746;281047;-85
2022/07/25 07:39:49;;;;;;;9.87;9.37;;;33.40;36.00;;;;;;20911;6746;118059;-85
2022/07/25 07:42:24;;;;;;;9.33;8.90;;;33.30;36.00;;;;;;20915;6746;117001;-85
2022/07/25 07:45:00;;;;;;;10.13;9.50;;;33.20;36.70;;;;;;20675;6746;309153;-85
2022/07/25 07:47:36;;;;;;;9.37;8.73;;;33.30;35.30;;;;;;20913;6746;117700;-85
2022/07/25 07:50:11;;;;;;;9.52;8.93;;;33.30;36.00;;;;;;20692;6746;310974;-85
2022/07/25 07:52:47;;;;;;;9.40;8.80;;;33.60;36.30;;;;;;20686;6746;307129;-85
2022/07/25 07:58:18;;;;;;;8.80;8.10;;;34.20;33.20;;;;;;20909;6746;117033;-85
2022/07/25 08:00:53;;;;;;;8.57;8.17;;;34.10;33.80;;;;;;20890;6746;118341;-85
2022/07/25 08:03:30;;;;;;;9.07;8.57;;;34.10;33.70;;;;;;20698;6746;305249;-86
2022/07/25 08:06:06;;;;;;;8.52;8.13;;;34.10;33.40;;;;;;20814;6746;120819;-87
2022/07/25 08:08:42;;;;;;;9.70;9.13;;;34.20;34.80;;;;;;20897;6746;117091;-91
2022/07/25 08:11:17;;;;;;;9.20;8.60;;;34.10;34.00;;;;;;20917;6746;117261;-84
2022/07/25 08:13:53;;;;;;;9.60;9.10;;;34.10;34.40;;;;;;20916;6746;117046;-86
2022/07/25 08:16:31;;;;;;;9.00;8.37;;;34.00;34.40;;;;;;20790;6746;116917;-85
2022/07/25 08:19:04;;;;;;;10.37;9.77;;;34.10;35.00;;;;;;20888;6746;119400;-85
2022/07/25 08:21:40;;;;;;;10.10;9.40;;;34.10;35.20;;;;;;20695;6746;305747;-85
2022/07/25 08:24:15;;;;;;;9.83;9.13;;;34.60;34.50;;;;;;20903;6746;117261;-84
2022/07/25 08:26:51;;;;;;;10.32;9.63;;;34.80;34.40;;;;;;20498;6746;308123;-85
2022/07/25 08:29:26;;;;;;;10.60;9.60;;;35.10;34.20;;;;;;20848;6761;117330;-85
2022/07/25 08:32:03;;;;;;;10.43;9.63;;;35.50;33.70;;;;;;20655;6761;277786;-85
2022/07/25 08:34:40;;;;;;;10.50;9.57;;;35.50;33.70;;;;;;20801;6777;119918;-85
2022/07/25 08:37:15;;;;;;;10.07;9.40;;;35.60;33.60;;;;;;20426;6776;310220;-85
2022/07/25 08:39:51;;;;;;;9.53;8.90;;;35.80;33.00;;;;;;20815;6776;117469;-85
2022/07/25 08:42:26;;;;;;;10.33;9.30;;;35.90;33.50;;;;;;20803;6776;117089;-85
2022/07/25 08:45:02;;;;;;;10.73;9.50;;;35.80;33.70;;;;;;20791;6770;119228;-85
2022/07/25 08:47:39;;;;;;;9.80;9.20;;;35.70;33.30;;;;;;20570;6784;336561;-85
2022/07/25 08:50:14;;;;;;;11.30;10.17;;;36.00;32.70;;;;;;20713;6784;119475;-85
2022/07/25 08:52:50;;;;;;;9.87;9.27;;;36.20;32.80;;;;;;20766;6794;118099;-85
2022/07/25 08:55:27;;;;;;;10.10;9.53;;;36.50;32.10;;;;;;20586;6775;279884;-85
2022/07/25 08:58:03;;;;;;;9.93;9.10;;;36.50;32.10;;;;;;20903;6746;117610;-85
2022/07/25 09:00:39;;;;;;;9.70;9.20;;;36.60;32.70;;;;;;20908;6746;117008;-85
2022/07/25 09:03:15;;;;;;;9.68;8.98;;;36.60;32.70;;;;;;20688;6746;307008;-85
2022/07/25 09:05:51;;;;;;;9.27;8.77;;;36.90;32.60;;;;;;20803;6761;117073;-85
2022/07/25 09:08:26;;;;;;;9.40;8.90;;;37.00;32.20;;;;;;20670;6754;305637;-85
2022/07/25 09:11:02;;;;;;;9.17;8.47;;;37.20;30.90;;;;;;20848;6759;117349;-87
2022/07/25 09:13:39;;;;;;;9.03;8.50;;;37.30;31.10;;;;;;20651;6761;281448;-84
2022/07/25 09:16:13;;;;;;;8.93;8.40;;;37.50;30.50;;;;;;20587;6746;333923;-84
2022/07/25 09:18:48;;;;;;;8.88;8.07;;;37.80;30.30;;;;;;20667;6746;339272;-85
2022/07/25 09:21:24;;;;;;;8.57;8.07;;;38.20;30.00;;;;;;20689;6746;335923;-86
2022/07/25 09:24:14;;;;;;;8.00;7.50;;;38.50;29.50;;;;;;20914;6746;117500;-84
2022/07/25 09:26:48;;;;;;;7.77;7.30;;;38.60;29.30;;;;;;20721;6746;121344;-85
2022/07/25 09:29:27;;;;;;;7.85;7.35;;;38.40;29.10;;;;;;20911;6746;117263;-85
2022/07/25 09:32:02;;;;;;;7.90;7.40;;;38.20;28.50;;;;;;20909;6746;117091;-85
2022/07/25 09:34:38;;;;;;;7.80;7.30;;;38.10;28.40;;;;;;20687;6746;307166;-85
2022/07/25 09:37:17;;;;;;;8.40;7.80;;;38.30;28.70;;;;;;20713;6746;121836;-85
2022/07/25 09:39:53;;;;;;;8.30;7.90;;;38.40;28.50;;;;;;20905;6746;117017;-84
2022/07/25 09:42:33;;;;;;;8.33;7.70;;;38.50;27.40;;;;;;20701;6746;301954;-86
2022/07/25 09:45:11;;;;;;;7.77;7.30;;;38.50;27.40;;;;;;20887;6746;119402;-83
2022/07/25 09:47:48;;;;;;;7.60;7.10;;;38.80;28.00;;;;;;20706;6746;307850;-84
2022/07/25 09:50:23;;;;;;;8.00;7.50;;;38.80;27.90;;;;;;20691;6746;310012;-85
2022/07/25 09:53:00;;;;;;;8.33;7.53;;;39.10;26.80;;;;;;20899;6746;117495;-84
2022/07/25 09:55:34;;;;;;;7.68;7.28;;;39.10;27.10;;;;;;20652;6746;318525;-85
2022/07/25 09:58:10;;;;;;;7.80;7.37;;;39.20;26.60;;;;;;20913;6745;120632;-88
2022/07/25 10:00:51;;;;;;;8.17;7.50;;;39.10;26.90;;;;;;20902;6746;117428;-87
2022/07/25 10:03:42;;;;;;;8.27;7.77;;;38.80;27.20;;;;;;20917;6746;117662;-85
2022/07/25 10:06:35;;;;;;;7.87;7.37;;;38.80;27.20;;;;;;20579;6746;308283;-87
2022/07/25 10:09:10;;;;;;;8.05;7.50;;;39.10;26.60;;;;;;20897;6745;116850;-89
2022/07/25 10:12:06;;;;;;;7.50;7.03;;;39.10;26.40;;;;;;20523;6787;305322;-87
2022/07/25 10:14:42;;;;;;;7.50;7.10;;;39.20;26.50;;;;;;20469;6746;337136;-86
2022/07/25 10:17:21;;;;;;;7.65;7.25;;;39.60;26.20;;;;;;20654;6746;118649;-87
2022/07/25 10:20:07;;;;;;;;;;;;;;;;;;;;;
2022/07/25 10:22:36;;;;;;;7.80;7.40;;;39.60;25.50;;;;;;20731;6775;121582;-87
2022/07/25 10:25:15;;;;;;;7.87;7.17;;;39.60;26.00;;;;;;20478;6791;308513;-89
2022/07/25 10:27:58;;;;;;;7.13;6.67;;;39.50;25.50;;;;;;20566;6775;277814;-86
2022/07/25 10:30:27;;;;;;;7.00;6.67;;;39.60;25.10;;;;;;20774;6789;118388;-87
2022/07/25 10:33:03;;;;;;;6.70;6.30;;;39.40;25.20;;;;;;20555;6759;306130;-86
2022/07/25 10:35:50;;;;;;;6.27;5.93;;;39.30;25.20;;;;;;20645;6804;117774;-85
2022/07/25 10:38:17;;;;;;;6.40;6.10;;;39.30;25.20;;;;;;20700;6789;117789;-89
2022/07/25 10:40:53;;;;;;;6.70;6.30;;;39.20;25.60;;;;;;20623;6774;278004;-86
2022/07/25 10:43:28;;;;;;;6.70;6.40;;;39.30;24.80;;;;;;20641;6764;277660;-86
2022/07/25 10:46:11;;;;;;;7.15;6.47;;;39.50;25.10;;;;;;20563;6764;308305;-84
2022/07/25 10:48:57;;;;;;;;;;;;;;;;;;;;;
2022/07/25 10:51:27;;;;;;;6.50;6.03;;;39.40;24.90;;;;;;20859;6746;118407;-89
2022/07/25 10:54:12;;;;;;;6.28;5.90;;;39.30;25.30;;;;;;20873;6746;117550;-87
2022/07/25 10:56:57;;;;;;;6.13;5.67;;;39.10;24.80;;;;;;20652;6802;118614;-85
2022/07/25 10:59:36;;;;;;;6.07;5.77;;;39.00;25.30;;;;;;20808;6764;117032;-85
2022/07/25 11:02:18;;;;;;;5.90;5.60;;;38.90;25.00;;;;;;20572;6764;277610;-85
2022/07/25 11:04:57;;;;;;;5.27;5.07;;;39.20;25.10;;;;;;20779;6764;118021;-87
2022/07/25 11:07:39;;;;;;;4.80;4.60;;;39.20;25.00;;;;;;20384;6819;285745;-86
2022/07/25 11:10:12;;;;;;;5.03;4.83;;;39.50;24.60;;;;;;20595;6759;278139;-87
2022/07/25 11:12:47;;;;;;;4.73;4.53;;;39.80;24.20;;;;;;20732;6759;117617;-86
2022/07/25 11:15:24;;;;;;;5.40;4.13;;;40.00;24.20;;;;;;20573;6759;309762;-87
2022/07/25 11:18:00;;;;;;;4.17;3.97;;;40.10;23.50;;;;;;20821;6759;117085;-87
2022/07/25 11:20:36;;;;;;;4.60;4.30;;;40.10;23.80;;;;;;20602;6759;280791;-87
2022/07/25 11:23:11;;;;;;;5.23;4.23;;;40.20;23.20;;;;;;20808;6759;121209;-87
2022/07/25 11:25:51;;;;;;;5.13;4.70;;;40.20;23.20;;;;;;20770;6749;117716;-87
2022/07/25 11:28:28;;;;;;;4.50;4.20;;;40.10;23.40;;;;;;20607;6756;306235;-87
2022/07/25 11:31:03;;;;;;;5.12;4.32;;;40.00;23.40;;;;;;20598;6754;277994;-86
2022/07/25 11:33:39;;;;;;;4.50;4.30;;;40.30;23.20;;;;;;20835;6754;121863;-87
2022/07/25 11:36:16;;;;;;;4.50;4.30;;;40.20;22.90;;;;;;20697;6761;117244;-86
2022/07/25 11:38:52;;;;;;;5.77;4.23;;;40.00;22.30;;;;;;20534;6764;278650;-88
2022/07/25 11:41:28;;;;;;;7.03;4.55;;;40.00;22.30;;;;;;20609;6746;336546;-87
2022/07/25 11:44:04;;;;;;;5.20;4.82;;;40.10;22.30;;;;;;20853;6746;117130;-91
2022/07/25 11:46:43;;;;;;;4.67;4.37;;;39.90;22.50;;;;;;20593;6776;118150;-88
2022/07/25 11:49:18;;;;;;;4.40;4.20;;;39.60;23.20;;;;;;20815;6764;118189;-89
2022/07/25 11:51:55;;;;;;;4.53;4.33;;;39.40;23.60;;;;;;20755;6791;117690;-88
2022/07/25 11:54:33;;;;;;;4.67;4.43;;;39.30;23.60;;;;;;20845;6761;118043;-88
2022/07/25 11:57:08;;;;;;;4.47;4.27;;;39.30;23.60;;;;;;20652;6776;119365;-87
2022/07/25 11:59:41;;;;;;;4.40;4.20;;;39.20;23.60;;;;;;20782;6776;117032;-85
2022/07/25 12:02:23;;;;;;;4.50;4.30;;;39.20;23.70;;;;;;20749;6761;116965;-88
2022/07/25 12:05:10;;;;;;;4.40;4.20;;;39.10;23.30;;;;;;20560;6776;296693;-88
2022/07/25 12:07:52;;;;;;;4.50;4.10;;;39.30;22.90;;;;;;20779;6779;118199;-88
2022/07/25 12:10:42;;;;;;;;;;;;;;;;;;;;;
2022/07/25 12:13:21;;;;;;;4.25;4.05;;;39.30;22.80;;;;;;20532;6776;307449;-89
2022/07/25 12:15:53;;;;;;;;;;;;;;;;;;;;;
2022/07/25 12:18:19;;;;;;;4.00;3.80;;;39.70;21.70;;;;;;20769;6761;118409;-90
2022/07/25 12:20:55;;;;;;;3.60;3.40;;;39.60;21.80;;;;;;20777;6775;121238;-90
2022/07/25 12:23:40;;;;;;;;;;;;;;;;;;;;;
2022/07/25 12:26:18;;;;;;;;;;;;;;;;;;;;;
2022/07/25 12:29:00;;;;;;;;;;;;;;;;;;;;;
2022/07/25 12:31:29;;;;;;;;;;;;;;;;;;;;;
2022/07/25 12:34:08;;;;;;;;;;;;;;;;;;;;;
2022/07/25 12:36:43;;;;;;;;;;;;;;;;;;;;;
2022/07/25 12:39:16;;;;;;;;;;;;;;;;;;;;;
2022/07/25 12:41:56;;;;;;;;;;;;;;;;;;;;;
2022/07/25 12:44:21;;;;;;;4.27;3.90;;;39.00;22.20;;;;;;19784;6847;320962;-87
2022/07/25 12:47:02;;;;;;;4.00;3.70;;;39.30;22.40;;;;;;20575;6777;118286;-86
2022/07/25 12:49:33;;;;;;;4.43;3.85;;;39.30;22.00;;;;;;20530;6781;307994;-86
2022/07/25 12:52:09;;;;;;;4.23;4.00;;;39.20;22.00;;;;;;20696;6781;121543;-87
2022/07/25 12:54:45;;;;;;;4.37;4.07;;;39.20;22.00;;;;;;20507;6781;319926;-87
2022/07/25 12:57:20;;;;;;;5.97;4.33;;;39.40;22.50;;;;;;20579;6781;117842;-87
2022/07/25 12:59:56;;;;;;;4.87;4.10;;;39.40;22.40;;;;;;20850;6756;117010;-86
2022/07/25 13:02:31;;;;;;;5.97;4.60;;;39.20;22.40;;;;;;20590;6769;277692;-85
2022/07/25 13:05:10;;;;;;;4.40;4.10;;;39.20;22.50;;;;;;20840;6756;117275;-88
2022/07/25 13:07:57;;;;;;;4.50;4.20;;;39.30;22.00;;;;;;20789;6769;117212;-88
2022/07/25 13:10:24;;;;;;;4.50;4.07;;;39.10;22.00;;;;;;20816;6766;118754;-91
2022/07/25 13:13:00;;;;;;;12.17;4.50;;;38.90;22.40;;;;;;20827;6769;117359;-86
2022/07/25 13:15:38;;;;;;;10.43;4.50;;;38.70;22.60;;;;;;20655;6769;307639;-87
2022/07/25 13:18:12;;;;;;;4.87;4.47;;;38.70;22.60;;;;;;20926;6756;117304;-87
2022/07/25 13:20:48;;;;;;;5.17;4.63;;;38.70;22.60;;;;;;20791;6778;118014;-87
2022/07/25 13:23:25;;;;;;;5.47;4.95;;;38.60;23.10;;;;;;20683;6762;331756;-87
2022/07/25 13:26:02;;;;;;;5.83;5.20;;;38.70;23.00;;;;;;20753;6777;116178;-88
2022/07/25 13:28:38;;;;;;;5.73;5.10;;;38.80;23.40;;;;;;20557;6782;307540;-88
2022/07/25 13:31:14;;;;;;;5.37;4.95;;;38.80;23.70;;;;;;20665;6765;306183;-89
2022/07/25 13:33:50;;;;;;;5.53;5.12;;;39.40;23.00;;;;;;20528;6789;317352;-84
2022/07/25 13:36:26;;;;;;;5.30;5.07;;;39.40;23.00;;;;;;20639;6789;118281;-84